Terminal Aerodrome Forecast
Issued by NWS Austin/San Antonio, TX

Home | Current Version | Previous Version | Text Only | Print | Product List | Glossary On
Versions: 1 2 3 4 5 6 7 8 9 10 11 12 13 14 15 16 17
000
FTUS44 KEWX 011100
TAFDRT
TAF
KDRT 011125Z 0112/0212 12006KT P6SM FEW250
     FM011600 14014KT P6SM FEW250
     FM020200 10010KT P6SM FEW250
     FM020900 12010KT P6SM BKN017=

USA.gov is the U.S. government's official web portal to all federal, state and local government web resources and services.